createdAt,value
2018-02-23T00:00:49.802Z,0
2018-02-23T00:01:59.754Z,0
2018-02-23T00:03:09.453Z,0
2018-02-23T00:04:19.432Z,0
2018-02-23T00:05:29.139Z,0
2018-02-23T00:06:38.859Z,0
2018-02-23T00:07:48.550Z,0
2018-02-23T00:08:58.706Z,0
2018-02-23T00:10:08.672Z,0
2018-02-23T00:11:18.364Z,0
2018-02-23T00:12:28.319Z,0
2018-02-23T00:13:38.287Z,0
2018-02-23T00:14:47.993Z,0
2018-02-23T00:15:57.955Z,0
2018-02-23T00:17:07.904Z,0
2018-02-23T00:18:17.334Z,0
2018-02-23T00:19:27.025Z,0
2018-02-23T00:20:36.717Z,0
2018-02-23T00:21:46.683Z,0
2018-02-23T00:22:56.655Z,0
2018-02-23T00:24:06.098Z,0
2018-02-23T00:25:16.055Z,0
2018-02-23T00:26:25.750Z,0
2018-02-23T00:27:35.444Z,0
2018-02-23T00:28:45.397Z,0
2018-02-23T00:29:55.362Z,0
2018-02-23T00:31:05.313Z,0
2018-02-23T00:32:15.287Z,0
2018-02-23T00:33:24.977Z,0
2018-02-23T00:34:34.935Z,0
2018-02-23T00:35:44.894Z,0
2018-02-23T00:36:54.778Z,0
2018-02-23T00:38:04.727Z,0
2018-02-23T00:39:14.685Z,0
2018-02-23T00:40:24.639Z,0
2018-02-23T00:41:34.343Z,0
2018-02-23T00:42:44.304Z,0
2018-02-23T00:43:53.740Z,0
2018-02-23T00:45:03.842Z,0
2018-02-23T00:46:13.702Z,0
2018-02-23T00:47:23.136Z,0
2018-02-23T00:48:32.830Z,0
2018-02-23T00:49:42.527Z,0
2018-02-23T00:50:52.488Z,0
2018-02-23T00:52:02.455Z,0
2018-02-23T00:53:12.410Z,0
2018-02-23T00:54:22.361Z,0
2018-02-23T00:55:32.310Z,0
2018-02-23T00:56:42.257Z,0
2018-02-23T00:57:51.698Z,0
2018-02-23T00:59:01.647Z,0
2018-02-23T01:00:11.388Z,0
2018-02-23T01:01:21.088Z,0
2018-02-23T01:02:30.780Z,0
2018-02-23T01:03:40.732Z,0
2018-02-23T01:04:50.455Z,0
2018-02-23T01:05:59.897Z,0
2018-02-23T01:07:09.596Z,0
2018-02-23T01:08:19.290Z,0
2018-02-23T01:09:28.993Z,0
2018-02-23T01:10:38.707Z,0
2018-02-23T01:11:48.673Z,0
2018-02-23T01:12:58.370Z,0
2018-02-23T01:14:07.544Z,0
2018-02-23T01:15:17.244Z,0
2018-02-23T01:16:27.194Z,0
2018-02-23T01:17:36.900Z,0
2018-02-23T01:18:46.865Z,0
2018-02-23T01:19:56.545Z,0
2018-02-23T01:21:05.986Z,0
2018-02-23T01:22:15.166Z,0
2018-02-23T01:23:24.595Z,0
2018-02-23T01:24:34.288Z,0
2018-02-23T01:25:43.977Z,0
2018-02-23T01:26:53.927Z,0
2018-02-23T01:28:03.610Z,0
2018-02-23T01:29:13.563Z,0
2018-02-23T01:30:23.514Z,0
2018-02-23T01:31:33.205Z,0
2018-02-23T01:32:42.889Z,0
2018-02-23T01:33:52.583Z,0
2018-02-23T01:35:02.276Z,0
2018-02-23T01:36:11.960Z,0
2018-02-23T01:37:21.398Z,0
2018-02-23T01:38:31.094Z,0
2018-02-23T01:39:41.042Z,0
2018-02-23T01:40:51.004Z,0
2018-02-23T01:42:00.955Z,0
2018-02-23T01:43:10.642Z,0
2018-02-23T01:44:20.084Z,0
2018-02-23T01:45:30.037Z,0
2018-02-23T01:46:39.994Z,0
2018-02-23T01:47:49.946Z,0
2018-02-23T01:48:59.636Z,0
2018-02-23T01:50:09.087Z,0
2018-02-23T01:51:18.795Z,0
2018-02-23T01:52:28.748Z,0
2018-02-23T01:53:38.725Z,0
2018-02-23T01:54:48.156Z,0
2018-02-23T01:55:57.902Z,0
2018-02-23T01:57:07.348Z,0
2018-02-23T01:58:17.048Z,0
2018-02-23T01:59:26.760Z,0
2018-02-23T02:00:36.204Z,0
2018-02-23T02:01:45.902Z,0
2018-02-23T02:02:55.640Z,0
2018-02-23T02:04:05.329Z,0
2018-02-23T02:05:14.504Z,0
2018-02-23T02:06:24.442Z,0
2018-02-23T02:07:33.874Z,0
2018-02-23T02:08:43.322Z,0
2018-02-23T02:09:53.271Z,0
2018-02-23T02:11:02.962Z,0
2018-02-23T02:12:12.919Z,0
2018-02-23T02:13:22.628Z,0
2018-02-23T02:14:32.317Z,0
2018-02-23T02:15:42.269Z,0
2018-02-23T02:16:51.986Z,0
2018-02-23T02:18:01.682Z,0
2018-02-23T02:19:11.370Z,0
2018-02-23T02:20:21.068Z,0
2018-02-23T02:21:31.020Z,0
2018-02-23T02:22:40.986Z,0
2018-02-23T02:23:50.681Z,0
2018-02-23T02:25:00.118Z,0
2018-02-23T02:26:10.077Z,0
2018-02-23T02:27:20.025Z,0
2018-02-23T02:28:30.017Z,0
2018-02-23T02:29:39.442Z,0
2018-02-23T02:30:49.152Z,0
2018-02-23T02:31:59.106Z,0
2018-02-23T02:33:08.022Z,0
2018-02-23T02:34:17.733Z,0
2018-02-23T02:35:27.443Z,0
2018-02-23T02:36:37.193Z,0
2018-02-23T02:37:47.157Z,0
2018-02-23T02:38:57.141Z,0
2018-02-23T02:40:06.307Z,0
2018-02-23T02:41:16.267Z,0
2018-02-23T02:42:25.982Z,0
2018-02-23T02:43:35.955Z,0
2018-02-23T02:44:45.409Z,0
2018-02-23T02:45:55.381Z,0
2018-02-23T02:47:04.823Z,0
2018-02-23T02:48:14.530Z,0
2018-02-23T02:49:23.705Z,0
2018-02-23T02:50:33.436Z,0
2018-02-23T02:51:42.870Z,0
2018-02-23T02:52:52.311Z,0
2018-02-23T02:54:02.269Z,0
2018-02-23T02:55:11.977Z,0
2018-02-23T02:56:21.683Z,0
2018-02-23T02:57:31.129Z,0
2018-02-23T02:58:40.304Z,0
2018-02-23T02:59:49.739Z,0
2018-02-23T03:00:59.428Z,0
2018-02-23T03:02:08.858Z,0
2018-02-23T03:03:18.558Z,0
2018-02-23T03:04:28.265Z,0
2018-02-23T03:05:37.695Z,0
2018-02-23T03:06:47.396Z,0
2018-02-23T03:07:57.376Z,0
2018-02-23T03:09:07.347Z,0
2018-02-23T03:10:17.298Z,0
2018-02-23T03:11:27.246Z,0
2018-02-23T03:12:36.930Z,0
2018-02-23T03:13:46.895Z,0
2018-02-23T03:14:56.916Z,0
2018-02-23T03:16:06.858Z,0
2018-02-23T03:17:16.297Z,0
2018-02-23T03:18:26.247Z,0
2018-02-23T03:19:35.934Z,0
2018-02-23T03:20:45.623Z,0
2018-02-23T03:21:55.580Z,0
2018-02-23T03:23:05.292Z,0
2018-02-23T03:24:14.727Z,0
2018-02-23T03:25:24.170Z,0
2018-02-23T03:26:33.872Z,0
2018-02-23T03:27:43.815Z,0
2018-02-23T03:28:53.794Z,0
2018-02-23T03:30:03.502Z,0
2018-02-23T03:31:12.948Z,0
2018-02-23T03:32:22.922Z,0
2018-02-23T03:33:32.108Z,0
2018-02-23T03:34:42.067Z,0
2018-02-23T03:35:52.027Z,0
2018-02-23T03:37:01.973Z,0
2018-02-23T03:38:11.920Z,0
2018-02-23T03:39:21.104Z,0
2018-02-23T03:40:31.058Z,0
2018-02-23T03:41:40.508Z,0
2018-02-23T03:42:50.254Z,0
2018-02-23T03:44:00.221Z,0
2018-02-23T03:45:09.917Z,0
2018-02-23T03:46:19.849Z,0
2018-02-23T03:47:29.803Z,0
2018-02-23T03:48:39.753Z,0
2018-02-23T03:49:49.441Z,0
2018-02-23T03:50:59.387Z,0
2018-02-23T03:52:08.815Z,0
2018-02-23T03:53:18.760Z,0
2018-02-23T03:54:28.462Z,0
2018-02-23T03:55:38.159Z,0
2018-02-23T03:56:47.747Z,0
2018-02-23T03:57:57.701Z,0
2018-02-23T03:59:06.887Z,0
2018-02-23T04:00:16.319Z,0
2018-02-23T04:01:26.021Z,0
2018-02-23T04:02:35.978Z,0
2018-02-23T04:03:45.405Z,0
2018-02-23T04:04:54.580Z,0
2018-02-23T04:06:04.013Z,0
2018-02-23T04:07:14.211Z,0
2018-02-23T04:08:24.167Z,0
2018-02-23T04:09:34.121Z,0
2018-02-23T04:10:44.078Z,0
2018-02-23T04:11:54.042Z,0
2018-02-23T04:13:03.999Z,0
2018-02-23T04:14:13.959Z,0
2018-02-23T04:15:23.390Z,0
2018-02-23T04:16:33.083Z,0
2018-02-23T04:17:43.032Z,0
2018-02-23T04:18:52.761Z,0
2018-02-23T04:20:02.201Z,0
2018-02-23T04:21:11.891Z,0
2018-02-23T04:22:21.584Z,0
2018-02-23T04:23:31.597Z,0
2018-02-23T04:24:41.546Z,0
2018-02-23T04:25:51.532Z,0
2018-02-23T04:27:01.239Z,0
2018-02-23T04:28:11.436Z,0
2018-02-23T04:29:21.143Z,0
2018-02-23T04:30:31.099Z,0
2018-02-23T04:31:41.057Z,0
2018-02-23T04:32:50.990Z,0
2018-02-23T04:34:00.432Z,0
2018-02-23T04:35:10.128Z,0
2018-02-23T04:36:19.313Z,0
2018-02-23T04:37:29.005Z,0
2018-02-23T04:38:38.962Z,0
2018-02-23T04:39:48.399Z,0
2018-02-23T04:40:57.840Z,0
2018-02-23T04:42:07.541Z,0
2018-02-23T04:43:17.487Z,0
2018-02-23T04:44:27.189Z,0
2018-02-23T04:45:37.139Z,0
2018-02-23T04:46:46.311Z,0
2018-02-23T04:47:56.270Z,0
2018-02-23T04:49:06.214Z,0
2018-02-23T04:50:15.894Z,0
2018-02-23T04:51:25.318Z,0
2018-02-23T04:52:35.017Z,0
2018-02-23T04:53:44.717Z,0
2018-02-23T04:54:54.659Z,0
2018-02-23T04:56:04.443Z,0
2018-02-23T04:57:14.137Z,0
2018-02-23T04:58:23.840Z,0
2018-02-23T04:59:33.555Z,0
2018-02-23T05:00:43.514Z,0
2018-02-23T05:01:53.220Z,0
2018-02-23T05:03:02.922Z,0
2018-02-23T05:04:12.603Z,0
2018-02-23T05:05:22.560Z,0
2018-02-23T05:06:32.259Z,0
2018-02-23T05:07:41.945Z,0
2018-02-23T05:08:51.664Z,0
2018-02-23T05:10:01.619Z,0
2018-02-23T05:11:11.316Z,0
2018-02-23T05:12:20.488Z,0
2018-02-23T05:13:30.435Z,0
2018-02-23T05:14:40.378Z,0
2018-02-23T05:15:50.334Z,0
2018-02-23T05:16:59.773Z,0
2018-02-23T05:18:09.475Z,0
2018-02-23T05:19:19.442Z,0
2018-02-23T05:20:29.394Z,0
2018-02-23T05:21:38.836Z,0
2018-02-23T05:22:48.548Z,0
2018-02-23T05:23:57.986Z,0
2018-02-23T05:25:07.687Z,0
2018-02-23T05:26:17.643Z,0
2018-02-23T05:27:27.327Z,0
2018-02-23T05:28:37.282Z,0
2018-02-23T05:29:47.303Z,0
2018-02-23T05:30:56.997Z,0
2018-02-23T05:32:06.956Z,0
2018-02-23T05:33:16.912Z,0
2018-02-23T05:34:26.599Z,0
2018-02-23T05:35:36.312Z,0
2018-02-23T05:36:46.012Z,0
2018-02-23T05:37:55.704Z,0
2018-02-23T05:39:05.396Z,0
2018-02-23T05:40:15.103Z,0
2018-02-23T05:41:25.066Z,0
2018-02-23T05:42:35.076Z,0
2018-02-23T05:43:45.051Z,0
2018-02-23T05:44:55.018Z,0
2018-02-23T05:46:04.736Z,0
2018-02-23T05:47:14.185Z,0
2018-02-23T05:48:24.148Z,0
2018-02-23T05:49:33.848Z,0
2018-02-23T05:50:43.280Z,0
2018-02-23T05:51:52.968Z,0
2018-02-23T05:53:02.674Z,0
2018-02-23T05:54:12.610Z,0
2018-02-23T05:55:22.559Z,5
2018-02-23T05:56:32.005Z,5
2018-02-23T05:57:41.967Z,5
2018-02-23T05:58:51.397Z,5
2018-02-23T06:00:01.238Z,5
2018-02-23T06:01:10.981Z,10
2018-02-23T06:02:20.404Z,10
2018-02-23T06:03:30.094Z,10
2018-02-23T06:04:40.031Z,10
2018-02-23T06:05:49.730Z,15
2018-02-23T06:06:59.432Z,15
2018-02-23T06:08:08.865Z,15
2018-02-23T06:09:18.808Z,20
2018-02-23T06:10:28.774Z,20
2018-02-23T06:11:38.462Z,20
2018-02-23T06:12:48.420Z,25
2018-02-23T06:13:58.137Z,25
2018-02-23T06:15:08.099Z,30
2018-02-23T06:16:17.522Z,30
2018-02-23T06:17:27.242Z,35
2018-02-23T06:18:36.924Z,35
2018-02-23T06:19:46.361Z,40
2018-02-23T06:20:55.803Z,40
2018-02-23T06:22:05.767Z,45
2018-02-23T06:23:15.727Z,50
2018-02-23T06:24:25.674Z,50
2018-02-23T06:25:35.620Z,55
2018-02-23T06:26:45.596Z,55
2018-02-23T06:27:55.033Z,60
2018-02-23T06:29:04.730Z,60
2018-02-23T06:30:14.445Z,65
2018-02-23T06:31:24.408Z,70
2018-02-23T06:32:34.130Z,70
2018-02-23T06:33:43.825Z,75
2018-02-23T06:34:53.782Z,75
2018-02-23T06:36:03.481Z,80
2018-02-23T06:37:13.424Z,85
2018-02-23T06:38:22.872Z,85
2018-02-23T06:39:32.838Z,90
2018-02-23T06:40:42.535Z,90
2018-02-23T06:41:52.216Z,95
2018-02-23T06:43:02.173Z,100
2018-02-23T06:44:11.874Z,100
2018-02-23T06:45:21.586Z,105
2018-02-23T06:46:31.555Z,105
2018-02-23T06:47:41.524Z,110
2018-02-23T06:48:50.968Z,110
2018-02-23T06:50:00.409Z,115
2018-02-23T06:51:10.360Z,120
2018-02-23T06:52:19.806Z,120
2018-02-23T06:53:29.791Z,125
2018-02-23T06:54:39.509Z,125
2018-02-23T06:55:49.210Z,130
2018-02-23T06:56:59.182Z,130
2018-02-23T06:58:09.171Z,135
2018-02-23T06:59:19.137Z,145
2018-02-23T07:00:28.629Z,145
2018-02-23T07:01:37.808Z,145
2018-02-23T07:02:47.513Z,150
2018-02-23T07:03:57.293Z,155
2018-02-23T07:05:07.006Z,155
2018-02-23T07:06:16.980Z,160
2018-02-23T07:07:26.959Z,160
2018-02-23T07:08:36.668Z,165
2018-02-23T07:09:46.372Z,165
2018-02-23T07:10:56.418Z,170
2018-02-23T07:12:06.111Z,175
2018-02-23T07:13:15.818Z,180
2018-02-23T07:14:25.763Z,180
2018-02-23T07:15:35.453Z,185
2018-02-23T07:16:44.913Z,185
2018-02-23T07:17:55.073Z,190
2018-02-23T07:19:04.796Z,195
2018-02-23T07:20:14.514Z,195
2018-02-23T07:21:24.207Z,200
2018-02-23T07:22:33.913Z,205
2018-02-23T07:23:43.637Z,205
2018-02-23T07:24:53.317Z,205
2018-02-23T07:26:03.321Z,215
2018-02-23T07:27:13.042Z,215
2018-02-23T07:28:22.500Z,215
2018-02-23T07:29:31.972Z,215
2018-02-23T07:30:41.739Z,220
2018-02-23T07:31:51.012Z,230
2018-02-23T07:33:00.984Z,230
2018-02-23T07:34:10.685Z,230
2018-02-23T07:35:20.139Z,235
2018-02-23T07:36:29.834Z,235
2018-02-23T07:37:39.575Z,240
2018-02-23T07:38:49.306Z,250
2018-02-23T07:39:59.264Z,250
2018-02-23T07:41:09.231Z,250
2018-02-23T07:42:19.199Z,250
2018-02-23T07:43:29.164Z,255
2018-02-23T07:44:38.442Z,270
2018-02-23T07:45:48.184Z,270
2018-02-23T07:46:57.650Z,265
2018-02-23T07:48:07.376Z,270
2018-02-23T07:49:17.139Z,270
2018-02-23T07:50:26.879Z,275
2018-02-23T07:51:36.662Z,280
2018-02-23T07:52:46.671Z,280
2018-02-23T07:53:56.365Z,285
2018-02-23T07:55:06.327Z,285
2018-02-23T07:56:16.292Z,290
2018-02-23T07:57:26.270Z,295
2018-02-23T07:58:35.715Z,300
2018-02-23T07:59:45.177Z,300
2018-02-23T08:00:54.917Z,310
2018-02-23T08:02:04.638Z,310
2018-02-23T08:03:14.370Z,315
2018-02-23T08:04:24.122Z,325
2018-02-23T08:05:34.100Z,330
2018-02-23T08:06:44.114Z,325
2018-02-23T08:07:54.129Z,330
2018-02-23T08:09:04.197Z,335
2018-02-23T08:10:14.164Z,340
2018-02-23T08:11:23.942Z,355
2018-02-23T08:12:33.917Z,345
2018-02-23T08:13:43.626Z,365
2018-02-23T08:14:53.664Z,410
2018-02-23T08:16:03.137Z,410
2018-02-23T08:17:12.839Z,395
2018-02-23T08:18:22.812Z,440
2018-02-23T08:19:32.538Z,440
2018-02-23T08:20:42.505Z,440
2018-02-23T08:21:52.240Z,445
2018-02-23T08:23:01.961Z,450
2018-02-23T08:24:11.718Z,455
2018-02-23T08:25:21.410Z,460
2018-02-23T08:26:31.499Z,475
2018-02-23T08:27:40.639Z,455
2018-02-23T08:28:50.349Z,435
2018-02-23T08:30:00.353Z,500
2018-02-23T08:31:10.319Z,495
2018-02-23T08:32:19.780Z,510
2018-02-23T08:33:29.777Z,515
2018-02-23T08:34:39.489Z,505
2018-02-23T08:35:49.451Z,510
2018-02-23T08:36:59.402Z,520
2018-02-23T08:38:09.366Z,535
2018-02-23T08:39:19.379Z,520
2018-02-23T08:40:29.085Z,520
2018-02-23T08:41:39.057Z,515
2018-02-23T08:42:48.503Z,575
2018-02-23T08:43:58.211Z,540
2018-02-23T08:45:07.652Z,615
2018-02-23T08:46:17.771Z,550
2018-02-23T08:47:27.532Z,620
2018-02-23T08:48:37.298Z,600
2018-02-23T08:49:46.800Z,650
2018-02-23T08:50:56.876Z,620
2018-02-23T08:52:06.594Z,640
2018-02-23T08:53:16.129Z,660
2018-02-23T08:54:25.795Z,650
2018-02-23T08:55:35.779Z,665
2018-02-23T08:56:45.519Z,695
2018-02-23T08:57:55.320Z,715
2018-02-23T08:59:05.302Z,720
2018-02-23T09:00:14.972Z,700
2018-02-23T09:01:24.563Z,715
2018-02-23T09:02:34.279Z,695
2018-02-23T09:03:44.106Z,700
2018-02-23T09:04:53.765Z,600
2018-02-23T09:06:02.931Z,720
2018-02-23T09:07:12.637Z,730
2018-02-23T09:08:22.294Z,745
2018-02-23T09:09:31.950Z,780
2018-02-23T09:10:41.908Z,810
2018-02-23T09:11:51.323Z,780
2018-02-23T09:13:01.235Z,775
2018-02-23T09:14:11.209Z,790
2018-02-23T09:15:20.616Z,830
2018-02-23T09:16:29.811Z,820
2018-02-23T09:17:39.300Z,865
2018-02-23T09:18:49.418Z,895
2018-02-23T09:19:59.128Z,890
2018-02-23T09:21:08.833Z,895
2018-02-23T09:22:18.277Z,885
2018-02-23T09:23:27.741Z,870
2018-02-23T09:24:37.522Z,865
2018-02-23T09:25:47.493Z,865
2018-02-23T09:26:57.467Z,860
2018-02-23T09:28:07.182Z,875
2018-02-23T09:29:17.168Z,885
2018-02-23T09:30:27.148Z,920
2018-02-23T09:31:37.197Z,920
2018-02-23T09:32:47.179Z,945
2018-02-23T09:33:56.896Z,970
2018-02-23T09:35:06.623Z,1045
2018-02-23T09:36:16.348Z,1040
2018-02-23T09:37:26.310Z,1030
2018-02-23T09:38:36.008Z,985
2018-02-23T09:39:45.728Z,930
2018-02-23T09:40:55.176Z,940
2018-02-23T09:42:05.210Z,955
2018-02-23T09:43:14.912Z,985
2018-02-23T09:44:24.365Z,970
2018-02-23T09:45:34.339Z,980
2018-02-23T09:46:44.056Z,935
2018-02-23T09:47:54.021Z,1020
2018-02-23T09:49:03.744Z,1015
2018-02-23T09:50:13.615Z,965
2018-02-23T09:51:23.388Z,965
2018-02-23T09:52:33.092Z,1020
2018-02-23T09:53:42.802Z,995
2018-02-23T09:54:52.787Z,990
2018-02-23T09:56:02.307Z,1075
2018-02-23T09:57:12.298Z,770
2018-02-23T09:58:22.273Z,1075
2018-02-23T09:59:32.008Z,1155
2018-02-23T10:00:41.751Z,1145
2018-02-23T10:01:51.751Z,1205
2018-02-23T10:03:01.461Z,1210
2018-02-23T10:04:11.172Z,1200
2018-02-23T10:05:20.879Z,1300
2018-02-23T10:06:30.904Z,1285
2018-02-23T10:07:40.629Z,1260
2018-02-23T10:08:50.663Z,1520
2018-02-23T10:10:00.125Z,1485
2018-02-23T10:11:09.596Z,1525
2018-02-23T10:12:19.604Z,1345
2018-02-23T10:13:29.585Z,1435
2018-02-23T10:14:39.292Z,1560
2018-02-23T10:15:49.020Z,1665
2018-02-23T10:16:58.459Z,1625
2018-02-23T10:18:07.409Z,1650
2018-02-23T10:19:17.378Z,1645
2018-02-23T10:20:27.372Z,1655
2018-02-23T10:21:37.330Z,1715
2018-02-23T10:22:47.038Z,1725
2018-02-23T10:23:56.732Z,1740
2018-02-23T10:25:06.192Z,1570
2018-02-23T10:26:16.305Z,1650
2018-02-23T10:27:26.030Z,1725
2018-02-23T10:28:35.756Z,1830
2018-02-23T10:29:45.207Z,1805
2018-02-23T10:30:54.918Z,1690
2018-02-23T10:32:04.912Z,1630
2018-02-23T10:33:14.906Z,1640
2018-02-23T10:34:24.636Z,1725
2018-02-23T10:35:34.094Z,1830
2018-02-23T10:36:44.103Z,1715
2018-02-23T10:37:53.584Z,1675
2018-02-23T10:39:03.314Z,1785
2018-02-23T10:40:13.046Z,1935
2018-02-23T10:41:22.778Z,1865
2018-02-23T10:42:32.758Z,1900
2018-02-23T10:43:42.209Z,1870
2018-02-23T10:44:51.661Z,1890
2018-02-23T10:46:01.645Z,1975
2018-02-23T10:47:11.635Z,1940
2018-02-23T10:48:21.630Z,1960
2018-02-23T10:49:31.359Z,2035
2018-02-23T10:50:41.074Z,1985
2018-02-23T10:51:50.621Z,2025
2018-02-23T10:53:00.342Z,2030
2018-02-23T10:54:10.055Z,2195
2018-02-23T10:55:20.047Z,2155
2018-02-23T10:56:29.501Z,2150
2018-02-23T10:57:39.254Z,2115
2018-02-23T10:58:49.227Z,2070
2018-02-23T10:59:58.681Z,2175
2018-02-23T11:01:08.136Z,2195
2018-02-23T11:02:18.156Z,2145
2018-02-23T11:03:28.133Z,2070
2018-02-23T11:04:37.591Z,2130
2018-02-23T11:05:47.305Z,2135
2018-02-23T11:06:57.031Z,2060
2018-02-23T11:08:07.012Z,2105
2018-02-23T11:09:16.724Z,2115
2018-02-23T11:10:26.701Z,2175
2018-02-23T11:11:36.449Z,2130
2018-02-23T11:12:46.437Z,2115
2018-02-23T11:13:55.895Z,2120
2018-02-23T11:15:05.884Z,2005
2018-02-23T11:16:15.607Z,2095
2018-02-23T11:17:25.371Z,2280
2018-02-23T11:18:34.912Z,2285
2018-02-23T11:19:44.931Z,2270
2018-02-23T11:20:54.906Z,2270
2018-02-23T11:22:04.872Z,2245
2018-02-23T11:23:14.084Z,2260
2018-02-23T11:24:24.086Z,2330
2018-02-23T11:25:33.798Z,2280
2018-02-23T11:26:43.790Z,2220
2018-02-23T11:27:53.773Z,2250
2018-02-23T11:29:03.489Z,2235
2018-02-23T11:30:12.976Z,2250
2018-02-23T11:31:22.446Z,2310
2018-02-23T11:32:32.160Z,2275
2018-02-23T11:33:42.145Z,2195
2018-02-23T11:34:52.105Z,2100
2018-02-23T11:36:01.564Z,2265
2018-02-23T11:37:11.291Z,2355
2018-02-23T11:38:21.005Z,2255
2018-02-23T11:39:30.721Z,2325
2018-02-23T11:40:40.450Z,2285
2018-02-23T11:41:49.916Z,2220
2018-02-23T11:42:59.880Z,2185
2018-02-23T11:44:09.851Z,2250
2018-02-23T11:45:19.568Z,2245
2018-02-23T11:46:29.798Z,2260
2018-02-23T11:47:39.773Z,2295
2018-02-23T11:48:49.764Z,2360
2018-02-23T11:49:59.483Z,2385
2018-02-23T11:51:09.211Z,2345
2018-02-23T11:52:19.194Z,2420
2018-02-23T11:53:29.169Z,2520
2018-02-23T11:54:38.601Z,2525
2018-02-23T11:55:48.350Z,2550
2018-02-23T11:56:57.551Z,2345
2018-02-23T11:58:07.301Z,2215
2018-02-23T11:59:16.716Z,2410
2018-02-23T12:00:26.705Z,2480
2018-02-23T12:01:36.130Z,2450
2018-02-23T12:02:45.847Z,2425
2018-02-23T12:03:56.042Z,2490
2018-02-23T12:05:05.482Z,2540
2018-02-23T12:06:15.215Z,2600
2018-02-23T12:07:24.665Z,2450
2018-02-23T12:08:34.640Z,2340
2018-02-23T12:09:44.362Z,2445
2018-02-23T12:10:54.338Z,2530
2018-02-23T12:12:04.084Z,2420
2018-02-23T12:13:14.056Z,2415
2018-02-23T12:14:23.521Z,2505
2018-02-23T12:15:33.281Z,2585
2018-02-23T12:16:43.019Z,2640
2018-02-23T12:17:52.489Z,2620
2018-02-23T12:19:02.428Z,2575
2018-02-23T12:20:12.422Z,2630
2018-02-23T12:21:22.591Z,2670
2018-02-23T12:22:32.339Z,2630
2018-02-23T12:23:42.336Z,2535
2018-02-23T12:24:52.324Z,2565
2018-02-23T12:26:02.056Z,2585
2018-02-23T12:27:11.512Z,2670
2018-02-23T12:28:21.244Z,2595
2018-02-23T12:29:30.449Z,2535
2018-02-23T12:30:39.906Z,2565
2018-02-23T12:31:49.657Z,2555
2018-02-23T12:32:59.648Z,2605
2018-02-23T12:34:09.388Z,2525
2018-02-23T12:35:19.135Z,2440
2018-02-23T12:36:29.133Z,2380
2018-02-23T12:37:39.136Z,2360
2018-02-23T12:38:49.135Z,2380
2018-02-23T12:39:58.856Z,2530
2018-02-23T12:41:08.839Z,2620
2018-02-23T12:42:18.815Z,2610
2018-02-23T12:43:28.812Z,2485
2018-02-23T12:44:38.865Z,2470
2018-02-23T12:45:48.590Z,2445
2018-02-23T12:46:58.277Z,2320
2018-02-23T12:48:08.357Z,2295
2018-02-23T12:49:18.398Z,2345
2018-02-23T12:50:28.086Z,2465
2018-02-23T12:51:38.081Z,2500
2018-02-23T12:52:48.063Z,2545
2018-02-23T12:53:58.022Z,2580
2018-02-23T12:55:07.478Z,2605
2018-02-23T12:56:17.207Z,2645
2018-02-23T12:57:26.935Z,2635
2018-02-23T12:58:36.918Z,2630
2018-02-23T12:59:46.961Z,2635
2018-02-23T13:00:56.416Z,2610
2018-02-23T13:02:06.130Z,2570
2018-02-23T13:03:16.099Z,2605
2018-02-23T13:04:26.083Z,2600
2018-02-23T13:05:35.817Z,2250
2018-02-23T13:06:45.563Z,1830
2018-02-23T13:07:55.596Z,2545
2018-02-23T13:09:05.581Z,2625
2018-02-23T13:10:15.572Z,2630
2018-02-23T13:11:25.578Z,2600
2018-02-23T13:12:35.563Z,2590
2018-02-23T13:13:45.549Z,2540
2018-02-23T13:14:55.568Z,2540
2018-02-23T13:16:05.307Z,2585
2018-02-23T13:17:15.017Z,2540
2018-02-23T13:18:24.771Z,2525
2018-02-23T13:19:34.759Z,2510
2018-02-23T13:20:44.756Z,2445
2018-02-23T13:21:54.500Z,2510
2018-02-23T13:23:03.967Z,2535
2018-02-23T13:24:13.974Z,2525
2018-02-23T13:25:23.476Z,2510
2018-02-23T13:26:32.700Z,2505
2018-02-23T13:27:42.702Z,2460
2018-02-23T13:28:52.717Z,2495
2018-02-23T13:30:02.717Z,2485
2018-02-23T13:31:12.549Z,2490
2018-02-23T13:32:22.009Z,2520
2018-02-23T13:33:32.038Z,2545
2018-02-23T13:34:42.017Z,2480
2018-02-23T13:35:51.782Z,2430
2018-02-23T13:37:01.260Z,2425
2018-02-23T13:38:11.055Z,2430
2018-02-23T13:39:21.069Z,2510
2018-02-23T13:40:31.067Z,2430
2018-02-23T13:41:40.813Z,2295
2018-02-23T13:42:50.528Z,2300
2018-02-23T13:43:59.986Z,2340
2018-02-23T13:45:09.737Z,2395
2018-02-23T13:46:19.205Z,2385
2018-02-23T13:47:28.931Z,2335
2018-02-23T13:48:38.668Z,2360
2018-02-23T13:49:48.394Z,2395
2018-02-23T13:50:58.152Z,2380
2018-02-23T13:52:08.185Z,2355
2018-02-23T13:53:17.908Z,2305
2018-02-23T13:54:32.345Z,2295
2018-02-23T13:55:41.794Z,2225
2018-02-23T13:56:51.793Z,2140
2018-02-23T13:58:01.800Z,2110
2018-02-23T13:59:11.798Z,2095
2018-02-23T14:00:21.795Z,2145
2018-02-23T14:01:31.775Z,2150
2018-02-23T14:02:41.768Z,2105
2018-02-23T14:03:51.742Z,2080
2018-02-23T14:05:01.732Z,2135
2018-02-23T14:06:10.928Z,2240
2018-02-23T14:07:20.654Z,2210
2018-02-23T14:08:30.362Z,2155
2018-02-23T14:09:39.798Z,2090
2018-02-23T14:10:49.008Z,2080
2018-02-23T14:11:58.473Z,1915
2018-02-23T14:13:07.920Z,1915
2018-02-23T14:14:17.628Z,1825
2018-02-23T14:15:26.551Z,1750
2018-02-23T14:16:36.007Z,1090
2018-02-23T14:17:45.203Z,1535
2018-02-23T14:18:54.934Z,2010
2018-02-23T14:20:04.929Z,1985
2018-02-23T14:21:14.896Z,1930
2018-02-23T14:22:24.873Z,1925
2018-02-23T14:23:34.639Z,1895
2018-02-23T14:24:44.375Z,1835
2018-02-23T14:25:54.352Z,1825
2018-02-23T14:27:04.062Z,1795
2018-02-23T14:28:13.777Z,1760
2018-02-23T14:29:23.245Z,1815
2018-02-23T14:30:33.275Z,1840
2018-02-23T14:31:43.263Z,1835
2018-02-23T14:32:53.264Z,1815
2018-02-23T14:34:02.718Z,1715
2018-02-23T14:35:12.712Z,1680
2018-02-23T14:36:22.431Z,1680
2018-02-23T14:37:32.148Z,1650
2018-02-23T14:38:41.914Z,1685
2018-02-23T14:39:51.364Z,1645
2018-02-23T14:41:01.388Z,1635
2018-02-23T14:42:11.100Z,1655
2018-02-23T14:43:21.077Z,1680
2018-02-23T14:44:30.795Z,1625
2018-02-23T14:45:40.505Z,1555
2018-02-23T14:46:50.217Z,1515
2018-02-23T14:47:59.932Z,1545
2018-02-23T14:49:09.775Z,1555
2018-02-23T14:50:19.505Z,1545
2018-02-23T14:51:28.958Z,1500
2018-02-23T14:52:38.665Z,1475
2018-02-23T14:53:48.132Z,1425
2018-02-23T14:54:57.578Z,1415
2018-02-23T14:56:07.336Z,1390
2018-02-23T14:57:17.319Z,1395
2018-02-23T14:58:27.296Z,1370
2018-02-23T14:59:36.748Z,1370
2018-02-23T15:00:46.709Z,1395
2018-02-23T15:01:56.682Z,1375
2018-02-23T15:03:06.391Z,1345
2018-02-23T15:04:16.378Z,1330
2018-02-23T15:05:26.114Z,1315
2018-02-23T15:06:35.820Z,1330
2018-02-23T15:07:45.790Z,1335
2018-02-23T15:08:55.769Z,1330
2018-02-23T15:10:05.477Z,1300
2018-02-23T15:11:14.675Z,1240
2018-02-23T15:12:24.130Z,1200
2018-02-23T15:13:34.133Z,1150
2018-02-23T15:14:44.101Z,1135
2018-02-23T15:15:53.297Z,1125
2018-02-23T15:17:02.744Z,1105
2018-02-23T15:18:12.471Z,1100
2018-02-23T15:19:21.669Z,1080
2018-02-23T15:20:31.639Z,1020
2018-02-23T15:21:41.612Z,970
2018-02-23T15:22:51.331Z,980
2018-02-23T15:24:01.311Z,985
2018-02-23T15:25:11.282Z,975
2018-02-23T15:26:21.257Z,945
2018-02-23T15:27:30.462Z,895
2018-02-23T15:28:40.175Z,865
2018-02-23T15:29:49.879Z,860
2018-02-23T15:30:59.583Z,810
2018-02-23T15:32:09.132Z,770
2018-02-23T15:33:18.829Z,735
2018-02-23T15:34:28.813Z,740
2018-02-23T15:35:38.779Z,730
2018-02-23T15:36:48.487Z,705
2018-02-23T15:37:58.455Z,700
2018-02-23T15:39:08.164Z,715
2018-02-23T15:40:17.369Z,715
2018-02-23T15:41:27.336Z,695
2018-02-23T15:42:37.040Z,670
2018-02-23T15:43:46.996Z,640
2018-02-23T15:44:56.817Z,620
2018-02-23T15:46:06.521Z,610
2018-02-23T15:47:16.227Z,580
2018-02-23T15:48:26.199Z,530
2018-02-23T15:49:36.153Z,500
2018-02-23T15:50:46.128Z,480
2018-02-23T15:51:55.334Z,455
2018-02-23T15:53:05.061Z,405
2018-02-23T15:54:14.511Z,390
2018-02-23T15:55:24.509Z,410
2018-02-23T15:56:34.500Z,445
2018-02-23T15:57:44.215Z,425
2018-02-23T15:58:53.679Z,405
2018-02-23T16:00:03.390Z,380
2018-02-23T16:01:13.113Z,355
2018-02-23T16:02:22.835Z,335
2018-02-23T16:03:32.805Z,320
2018-02-23T16:04:42.878Z,300
2018-02-23T16:05:52.609Z,290
2018-02-23T16:07:02.338Z,265
2018-02-23T16:08:12.077Z,245
2018-02-23T16:09:21.799Z,230
2018-02-23T16:10:31.859Z,215
2018-02-23T16:11:41.636Z,195
2018-02-23T16:12:51.077Z,175
2018-02-23T16:14:00.800Z,160
2018-02-23T16:15:10.768Z,140